createdAt,value
2018-07-01T00:00:19.434Z,99.90
2018-07-01T00:02:48.217Z,99.90
2018-07-01T00:07:45.290Z,99.90
2018-07-01T00:10:14.058Z,99.90
2018-07-01T00:12:42.878Z,99.90
2018-07-01T00:15:11.622Z,99.90
2018-07-01T00:17:40.470Z,99.90
2018-07-01T00:20:09.885Z,99.90
2018-07-01T00:22:39.093Z,99.90
2018-07-01T00:25:08.181Z,99.90
2018-07-01T00:27:37.077Z,99.90
2018-07-01T00:30:06.514Z,99.90
2018-07-01T00:32:49.768Z,99.90
2018-07-01T00:35:18.498Z,99.90
2018-07-01T00:37:47.305Z,99.90
2018-07-01T00:40:16.101Z,99.90
2018-07-01T00:42:44.838Z,99.90
2018-07-01T00:45:13.577Z,99.90
2018-07-01T00:47:42.222Z,99.90
2018-07-01T00:50:10.910Z,99.90
2018-07-01T00:52:39.602Z,99.90
2018-07-01T00:55:08.351Z,99.90
2018-07-01T00:57:37.070Z,99.90
2018-07-01T01:00:05.877Z,99.90
2018-07-01T01:02:34.635Z,99.90
2018-07-01T01:05:03.398Z,99.90
2018-07-01T01:07:32.110Z,99.90
2018-07-01T01:10:00.797Z,99.90
2018-07-01T01:12:29.554Z,99.90
2018-07-01T01:14:58.255Z,99.90
2018-07-01T01:17:27.054Z,99.90
2018-07-01T01:19:55.805Z,99.90
2018-07-01T01:24:52.965Z,99.90
2018-07-01T01:27:21.650Z,99.90
2018-07-01T01:29:50.356Z,99.90
2018-07-01T01:32:19.138Z,99.90
2018-07-01T01:34:47.910Z,99.90
2018-07-01T01:37:16.687Z,99.90
2018-07-01T01:39:45.862Z,99.90
2018-07-01T01:42:18.819Z,99.90
2018-07-01T01:44:55.657Z,99.90
2018-07-01T01:49:31.174Z,99.90
2018-07-01T01:52:05.766Z,99.90
2018-07-01T01:54:44.785Z,99.90
2018-07-01T01:58:20.142Z,99.90
2018-07-01T02:00:54.178Z,99.90
2018-07-01T02:03:32.711Z,99.90
2018-07-01T02:06:07.790Z,99.90
2018-07-01T02:08:45.545Z,99.90
2018-07-01T02:11:14.417Z,99.90
2018-07-01T02:13:46.454Z,99.90
2018-07-01T02:16:19.630Z,99.90
2018-07-01T02:18:48.397Z,99.90
2018-07-01T02:23:48.079Z,99.90
2018-07-01T02:26:16.774Z,99.90
2018-07-01T02:28:45.519Z,99.90
2018-07-01T02:31:14.228Z,99.90
2018-07-01T02:33:42.926Z,99.90
2018-07-01T02:36:12.212Z,99.90
2018-07-01T02:38:41.012Z,99.90
2018-07-01T02:41:09.795Z,99.90
2018-07-01T02:43:38.507Z,99.90
2018-07-01T02:46:07.183Z,99.90
2018-07-01T02:48:35.890Z,99.90
2018-07-01T02:51:04.628Z,99.90
2018-07-01T02:53:33.372Z,99.90
2018-07-01T02:56:02.036Z,99.90
2018-07-01T02:58:30.954Z,99.90
2018-07-01T03:00:59.637Z,99.90
2018-07-01T03:03:28.293Z,99.90
2018-07-01T03:05:56.966Z,99.90
2018-07-01T03:08:25.750Z,99.90
2018-07-01T03:10:54.465Z,99.90
2018-07-01T03:13:23.221Z,99.90
2018-07-01T03:15:51.903Z,99.90
2018-07-01T03:18:20.637Z,99.90
2018-07-01T03:20:49.313Z,99.90
2018-07-01T03:23:18.019Z,99.90
2018-07-01T03:25:46.710Z,99.90
2018-07-01T03:28:15.442Z,99.90
2018-07-01T03:30:44.217Z,99.90
2018-07-01T03:33:12.966Z,99.90
2018-07-01T03:35:41.694Z,99.90
2018-07-01T03:38:10.411Z,99.90
2018-07-01T03:40:39.114Z,99.90
2018-07-01T03:43:07.793Z,99.90
2018-07-01T03:45:36.578Z,99.90
2018-07-01T03:48:05.390Z,99.90
2018-07-01T03:53:02.877Z,99.90
2018-07-01T03:55:31.617Z,99.90
2018-07-01T03:58:00.318Z,99.90
2018-07-01T04:00:29.110Z,99.90
2018-07-01T04:02:57.778Z,99.90
2018-07-01T04:05:26.465Z,99.90
2018-07-01T04:07:55.237Z,99.90
2018-07-01T04:10:23.921Z,99.90
2018-07-01T04:12:52.646Z,99.90
2018-07-01T04:15:21.369Z,99.90
2018-07-01T04:17:50.014Z,99.90
2018-07-01T04:20:18.813Z,99.90
2018-07-01T04:22:47.466Z,99.90
2018-07-01T04:25:16.126Z,99.90
2018-07-01T04:30:13.229Z,99.90
2018-07-01T04:32:41.959Z,99.90
2018-07-01T04:35:10.629Z,99.90
2018-07-01T04:37:39.373Z,99.90
2018-07-01T04:40:08.054Z,99.90
2018-07-01T04:42:36.915Z,99.90
2018-07-01T04:45:05.932Z,99.90
2018-07-01T04:47:34.641Z,99.90
2018-07-01T04:50:03.361Z,99.90
2018-07-01T04:52:32.133Z,99.90
2018-07-01T04:55:00.874Z,99.90
2018-07-01T04:57:29.549Z,99.90
2018-07-01T04:59:58.213Z,99.90
2018-07-01T05:02:26.996Z,99.90
2018-07-01T05:04:55.677Z,99.90
2018-07-01T05:07:24.397Z,99.90
2018-07-01T05:09:53.063Z,99.90
2018-07-01T05:12:21.718Z,99.90
2018-07-01T05:14:50.494Z,99.90
2018-07-01T05:17:19.214Z,99.90
2018-07-01T05:19:47.877Z,99.90
2018-07-01T05:22:16.613Z,99.90
2018-07-01T05:24:45.400Z,99.90
2018-07-01T05:27:14.146Z,99.90
2018-07-01T05:29:42.875Z,99.90
2018-07-01T05:32:11.653Z,99.90
2018-07-01T05:34:40.598Z,99.90
2018-07-01T05:37:09.409Z,99.90
2018-07-01T05:39:38.218Z,99.90
2018-07-01T05:42:06.954Z,99.90
2018-07-01T05:44:35.717Z,99.90
2018-07-01T05:47:04.449Z,99.90
2018-07-01T05:49:33.135Z,99.90
2018-07-01T05:52:01.875Z,99.90
2018-07-01T05:54:30.567Z,99.90
2018-07-01T05:56:59.266Z,99.90
2018-07-01T05:59:27.974Z,99.90
2018-07-01T06:01:56.677Z,99.90
2018-07-01T06:04:25.356Z,99.90
2018-07-01T06:06:54.111Z,99.90
2018-07-01T06:09:22.809Z,99.90
2018-07-01T06:11:51.542Z,99.90
2018-07-01T06:14:20.254Z,99.90
2018-07-01T06:16:49.051Z,99.90
2018-07-01T06:19:17.737Z,99.90
2018-07-01T06:21:46.450Z,99.90
2018-07-01T06:24:15.160Z,99.90
2018-07-01T06:26:43.890Z,99.90
2018-07-01T06:29:12.617Z,99.90
2018-07-01T06:31:41.494Z,99.90
2018-07-01T06:34:10.229Z,99.90
2018-07-01T06:36:38.953Z,99.90
2018-07-01T06:39:09.239Z,99.90
2018-07-01T06:41:37.941Z,99.90
2018-07-01T06:44:07.000Z,99.90
2018-07-01T06:46:35.809Z,99.90
2018-07-01T06:49:04.758Z,99.90
2018-07-01T06:51:33.491Z,99.90
2018-07-01T06:54:02.170Z,99.90
2018-07-01T06:56:30.960Z,99.90
2018-07-01T06:58:59.669Z,99.90
2018-07-01T07:01:28.398Z,99.90
2018-07-01T07:03:57.082Z,99.90
2018-07-01T07:06:25.769Z,99.90
2018-07-01T07:08:54.451Z,99.90
2018-07-01T07:11:23.149Z,99.90
2018-07-01T07:13:51.883Z,99.90
2018-07-01T07:16:20.627Z,99.90
2018-07-01T07:18:49.298Z,99.90
2018-07-01T07:21:18.018Z,99.90
2018-07-01T07:23:46.678Z,99.90
2018-07-01T07:26:15.446Z,99.90
2018-07-01T07:28:44.274Z,99.90
2018-07-01T07:31:12.961Z,99.90
2018-07-01T07:33:41.650Z,99.90
2018-07-01T07:36:10.328Z,99.90
2018-07-01T07:38:39.008Z,99.90
2018-07-01T07:41:07.706Z,99.90
2018-07-01T07:43:36.421Z,99.90
2018-07-01T07:46:05.214Z,99.90
2018-07-01T07:48:34.001Z,99.90
2018-07-01T07:55:59.393Z,99.90
2018-07-01T07:58:28.102Z,99.90
2018-07-01T08:00:56.797Z,99.90
2018-07-01T08:03:25.481Z,99.90
2018-07-01T08:05:54.156Z,99.90
2018-07-01T08:08:22.837Z,99.90
2018-07-01T08:10:51.541Z,99.90
2018-07-01T08:13:20.301Z,99.90
2018-07-01T08:15:49.053Z,99.90
2018-07-01T08:18:17.734Z,99.90
2018-07-01T08:20:46.494Z,99.90
2018-07-01T08:23:15.181Z,99.90
2018-07-01T08:25:43.882Z,99.90
2018-07-01T08:28:12.584Z,99.90
2018-07-01T08:30:41.282Z,99.90
2018-07-01T08:33:09.986Z,99.90
2018-07-01T08:35:38.673Z,99.90
2018-07-01T08:38:07.352Z,99.90
2018-07-01T08:40:36.015Z,99.90
2018-07-01T08:43:04.746Z,99.90
2018-07-01T08:45:33.419Z,99.90
2018-07-01T08:48:02.106Z,99.90
2018-07-01T08:50:30.802Z,99.90
2018-07-01T08:52:59.499Z,99.90
2018-07-01T08:55:28.162Z,99.90
2018-07-01T08:57:56.898Z,99.90
2018-07-01T09:02:53.850Z,99.90
2018-07-01T09:05:22.541Z,99.90
2018-07-01T09:07:51.343Z,99.90
2018-07-01T09:10:20.074Z,99.90
2018-07-01T09:12:48.793Z,99.90
2018-07-01T09:15:17.521Z,99.90
2018-07-01T09:17:46.214Z,99.90
2018-07-01T09:20:14.907Z,99.90
2018-07-01T09:22:43.575Z,99.90
2018-07-01T09:25:12.314Z,99.90
2018-07-01T09:27:41.062Z,99.90
2018-07-01T09:30:09.770Z,99.90
2018-07-01T09:32:38.427Z,99.90
2018-07-01T09:35:07.159Z,99.90
2018-07-01T09:37:35.874Z,99.90
2018-07-01T09:40:04.625Z,99.90
2018-07-01T09:42:33.317Z,99.90
2018-07-01T09:45:02.050Z,99.90
2018-07-01T09:47:30.696Z,99.90
2018-07-01T09:49:59.406Z,99.90
2018-07-01T09:52:28.095Z,99.90
2018-07-01T09:54:56.729Z,99.90
2018-07-01T09:57:25.495Z,99.90
2018-07-01T09:59:54.338Z,99.90
2018-07-01T10:02:23.022Z,99.90
2018-07-01T10:04:51.716Z,99.90
2018-07-01T10:07:20.445Z,99.90
2018-07-01T10:09:49.154Z,99.90
2018-07-01T10:12:17.897Z,99.90
2018-07-01T10:14:46.645Z,99.90
2018-07-01T10:17:15.389Z,99.90
2018-07-01T10:19:44.138Z,99.90
2018-07-01T10:22:12.827Z,99.90
2018-07-01T10:24:41.469Z,99.90
2018-07-01T10:27:10.141Z,99.90
2018-07-01T10:29:38.810Z,99.90
2018-07-01T10:32:07.558Z,99.90
2018-07-01T10:37:04.656Z,99.90
2018-07-01T10:39:33.327Z,99.90
2018-07-01T10:42:02.039Z,99.90
2018-07-01T10:44:30.713Z,99.90
2018-07-01T10:46:59.402Z,99.90
2018-07-01T10:49:28.078Z,99.90
2018-07-01T10:51:56.853Z,99.90
2018-07-01T10:54:25.514Z,99.90
2018-07-01T10:56:54.229Z,99.90
2018-07-01T10:59:22.939Z,99.90
2018-07-01T11:01:51.613Z,99.90
2018-07-01T11:04:20.297Z,99.90
2018-07-01T11:06:49.006Z,99.90
2018-07-01T11:09:17.677Z,99.90
2018-07-01T11:11:46.438Z,99.90
2018-07-01T11:14:15.155Z,99.90
2018-07-01T11:16:43.834Z,99.90
2018-07-01T11:19:12.551Z,99.90
2018-07-01T11:21:41.237Z,99.90
2018-07-01T11:24:09.918Z,99.90
2018-07-01T11:26:38.707Z,99.90
2018-07-01T11:29:07.352Z,99.90
2018-07-01T11:31:36.018Z,99.90
2018-07-01T11:39:16.118Z,99.90
2018-07-01T11:41:44.779Z,99.90
2018-07-01T11:44:13.433Z,99.90
2018-07-01T11:46:42.122Z,99.90
2018-07-01T11:49:10.880Z,99.90
2018-07-01T11:51:39.566Z,99.90
2018-07-01T11:54:08.322Z,99.90
2018-07-01T11:56:37.006Z,99.90
2018-07-01T11:59:05.701Z,99.90
2018-07-01T12:01:34.436Z,99.90
2018-07-01T12:04:03.226Z,99.90
2018-07-01T12:06:31.939Z,99.90
2018-07-01T12:09:00.905Z,99.90
2018-07-01T12:11:29.610Z,99.90
2018-07-01T12:13:58.411Z,99.90
2018-07-01T12:16:27.150Z,99.90
2018-07-01T12:18:55.824Z,99.90
2018-07-01T12:21:24.549Z,99.90
2018-07-01T12:23:53.466Z,99.90
2018-07-01T12:26:22.140Z,99.90
2018-07-01T12:28:50.831Z,99.90
2018-07-01T12:31:19.554Z,99.90
2018-07-01T12:33:48.246Z,99.90
2018-07-01T12:36:16.961Z,99.90
2018-07-01T12:38:45.697Z,99.90
2018-07-01T12:41:14.409Z,99.90
2018-07-01T12:43:43.087Z,99.90
2018-07-01T12:46:11.813Z,99.90
2018-07-01T12:48:40.541Z,99.90
2018-07-01T12:54:06.172Z,97.00
2018-07-01T12:56:34.933Z,95.40
2018-07-01T12:59:03.693Z,92.20
2018-07-01T13:01:32.394Z,92.00
2018-07-01T13:04:01.248Z,89.60
2018-07-01T13:06:29.982Z,84.90
2018-07-01T13:08:58.699Z,87.40
2018-07-01T13:11:27.411Z,77.80
2018-07-01T13:13:56.126Z,74.80
2018-07-01T13:16:24.853Z,70.80
2018-07-01T13:18:53.573Z,69.10
2018-07-01T13:21:22.306Z,67.00
2018-07-01T13:23:51.010Z,66.90
2018-07-01T13:26:19.734Z,64.00
2018-07-01T13:28:48.382Z,66.50
2018-07-01T13:31:17.092Z,61.30
2018-07-01T13:33:45.813Z,59.80
2018-07-01T13:36:14.494Z,62.20
2018-07-01T13:38:43.190Z,59.20
2018-07-01T13:43:40.333Z,58.30
2018-07-01T13:46:09.111Z,57.00
2018-07-01T13:48:37.806Z,58.00
2018-07-01T13:51:06.575Z,55.40
2018-07-01T13:53:35.291Z,54.50
2018-07-01T13:56:04.192Z,54.20
2018-07-01T13:58:32.834Z,54.00
2018-07-01T14:01:01.575Z,54.00
2018-07-01T14:03:30.281Z,54.90
2018-07-01T14:05:58.958Z,55.20
2018-07-01T14:08:27.673Z,53.70
2018-07-01T14:10:56.455Z,51.30
2018-07-01T14:13:25.122Z,50.80
2018-07-01T14:15:53.821Z,50.90
2018-07-01T14:18:22.545Z,50.40
2018-07-01T14:20:51.266Z,50.80
2018-07-01T14:23:19.937Z,49.70
2018-07-01T14:25:48.673Z,48.30
2018-07-01T14:28:17.378Z,48.70
2018-07-01T14:30:46.068Z,49.50
2018-07-01T14:33:14.783Z,51.20
2018-07-01T14:35:43.480Z,49.00
2018-07-01T14:38:12.123Z,48.20
2018-07-01T14:40:40.866Z,48.00
2018-07-01T14:43:09.570Z,47.40
2018-07-01T14:45:38.229Z,46.90
2018-07-01T14:48:07.101Z,46.60
2018-07-01T14:50:35.790Z,46.80
2018-07-01T14:53:04.547Z,46.70
2018-07-01T14:55:33.282Z,46.10
2018-07-01T14:58:02.153Z,46.50
2018-07-01T15:00:30.874Z,46.80
2018-07-01T15:02:59.612Z,46.30
2018-07-01T15:05:28.386Z,46.50
2018-07-01T15:07:57.128Z,47.30
2018-07-01T15:10:25.842Z,45.80
2018-07-01T15:12:54.511Z,47.90
2018-07-01T15:15:23.246Z,45.40
2018-07-01T15:17:51.961Z,45.70
2018-07-01T15:20:20.690Z,47.50
2018-07-01T15:22:49.397Z,49.10
2018-07-01T15:25:18.096Z,46.60
2018-07-01T15:27:46.754Z,49.00
2018-07-01T15:30:15.434Z,47.10
2018-07-01T15:32:44.174Z,47.30
2018-07-01T15:35:12.834Z,48.30
2018-07-01T15:37:41.569Z,48.30
2018-07-01T15:40:10.891Z,49.20
2018-07-01T15:42:39.637Z,49.50
2018-07-01T15:45:09.311Z,48.80
2018-07-01T15:47:38.046Z,52.40
2018-07-01T15:50:06.892Z,50.00
2018-07-01T15:52:36.066Z,52.40
2018-07-01T15:55:08.651Z,52.30
2018-07-01T15:57:38.083Z,52.00
2018-07-01T16:00:08.006Z,52.60
2018-07-01T16:02:37.445Z,53.60
2018-07-01T16:07:34.417Z,57.50
2018-07-01T16:10:03.207Z,59.00
2018-07-01T16:12:31.889Z,58.90
2018-07-01T16:15:00.726Z,59.70
2018-07-01T16:17:29.426Z,60.00
2018-07-01T16:19:58.189Z,61.00
2018-07-01T16:22:26.882Z,57.80
2018-07-01T16:27:33.310Z,61.00
2018-07-01T16:30:06.602Z,62.50
2018-07-01T16:32:36.090Z,61.30
2018-07-01T16:35:05.048Z,63.10
2018-07-01T16:37:34.090Z,62.10
2018-07-01T16:40:02.780Z,61.60
2018-07-01T16:42:31.506Z,59.40
2018-07-01T16:45:00.206Z,62.30
2018-07-01T16:47:28.878Z,65.90
2018-07-01T16:49:57.562Z,63.60
2018-07-01T16:52:26.333Z,65.20
2018-07-01T16:54:54.973Z,65.10
2018-07-01T16:57:23.674Z,65.70
2018-07-01T16:59:52.364Z,65.60
2018-07-01T17:02:21.065Z,66.10
2018-07-01T17:04:49.739Z,65.70
2018-07-01T17:07:18.560Z,66.50
2018-07-01T17:09:47.240Z,67.00
2018-07-01T17:12:16.047Z,67.60
2018-07-01T17:14:44.747Z,66.60
2018-07-01T17:17:13.467Z,67.80
2018-07-01T17:19:42.181Z,67.00
2018-07-01T17:22:10.956Z,67.60
2018-07-01T17:24:39.563Z,67.50
2018-07-01T17:27:08.278Z,67.60
2018-07-01T17:29:36.957Z,68.00
2018-07-01T17:34:17.061Z,68.10
2018-07-01T17:36:45.777Z,68.70
2018-07-01T17:39:14.441Z,69.00
2018-07-01T17:41:43.121Z,68.60
2018-07-01T17:44:11.858Z,69.70
2018-07-01T17:46:40.550Z,69.10
2018-07-01T17:49:09.479Z,69.30
2018-07-01T17:51:38.307Z,69.80
2018-07-01T17:54:07.531Z,70.60
2018-07-01T17:56:36.194Z,70.00
2018-07-01T17:59:05.043Z,70.60
2018-07-01T18:01:33.765Z,70.60
2018-07-01T18:04:02.522Z,70.80
2018-07-01T18:06:31.202Z,71.50
2018-07-01T18:09:00.029Z,72.30
2018-07-01T18:11:28.755Z,71.90
2018-07-01T18:13:57.585Z,72.80
2018-07-01T18:16:26.469Z,72.50
2018-07-01T18:18:55.177Z,72.70
2018-07-01T18:21:48.146Z,72.90
2018-07-01T18:26:21.294Z,72.80
2018-07-01T18:29:02.566Z,72.70
2018-07-01T18:31:19.258Z,73.30
2018-07-01T18:33:48.104Z,74.10
2018-07-01T18:36:16.867Z,73.40
2018-07-01T18:38:45.594Z,74.50
2018-07-01T18:41:16.426Z,73.90
2018-07-01T18:43:45.256Z,75.10
2018-07-01T18:46:14.019Z,74.70
2018-07-01T18:48:42.906Z,74.90
2018-07-01T18:56:08.997Z,75.00
2018-07-01T18:58:37.718Z,75.20
2018-07-01T19:01:06.618Z,75.80
2018-07-01T19:03:35.446Z,75.60
2018-07-01T19:06:04.459Z,76.10
2018-07-01T19:08:33.268Z,76.20
2018-07-01T19:11:01.990Z,77.40
2018-07-01T19:13:30.764Z,77.10
2018-07-01T19:15:59.517Z,80.60
2018-07-01T19:18:28.362Z,77.60
2018-07-01T19:20:57.233Z,78.80
2018-07-01T19:23:26.091Z,80.30
2018-07-01T19:25:55.114Z,82.10
2018-07-01T19:28:23.936Z,84.30
2018-07-01T19:30:53.701Z,83.70
2018-07-01T19:33:22.797Z,84.00
2018-07-01T19:35:51.542Z,87.90
2018-07-01T19:38:20.554Z,90.30
2018-07-01T19:40:49.416Z,88.00
2018-07-01T19:43:18.389Z,90.70
2018-07-01T19:45:47.230Z,91.00
2018-07-01T19:48:16.006Z,91.60
2018-07-01T19:50:45.083Z,91.80
2018-07-01T19:53:14.110Z,91.00
2018-07-01T19:55:42.912Z,92.40
2018-07-01T19:58:11.932Z,92.80
2018-07-01T20:00:40.810Z,93.50
2018-07-01T20:03:10.786Z,91.70
2018-07-01T20:05:39.830Z,94.80
2018-07-01T20:08:09.003Z,94.60
2018-07-01T20:10:38.357Z,95.10
2018-07-01T20:13:07.265Z,95.20
2018-07-01T20:15:36.394Z,96.80
2018-07-01T20:18:05.269Z,98.60
2018-07-01T20:20:34.366Z,98.00
2018-07-01T20:23:03.554Z,96.20
2018-07-01T20:25:32.437Z,99.90
2018-07-01T20:28:01.940Z,97.80
2018-07-01T20:30:31.463Z,99.90
2018-07-01T20:33:00.246Z,99.90
2018-07-01T20:35:29.539Z,99.90
2018-07-01T20:37:58.916Z,99.90
2018-07-01T20:40:27.732Z,99.90
2018-07-01T20:42:56.857Z,99.90
2018-07-01T20:45:26.401Z,99.90
2018-07-01T20:47:55.154Z,99.90
2018-07-01T20:50:24.521Z,99.90
2018-07-01T20:52:54.153Z,99.90
2018-07-01T20:55:23.149Z,99.90
2018-07-01T20:57:52.518Z,99.90
2018-07-01T21:00:22.787Z,99.90
2018-07-01T21:02:52.091Z,99.90
2018-07-01T21:05:20.999Z,99.90
2018-07-01T21:07:49.778Z,99.90
2018-07-01T21:10:18.710Z,99.90
2018-07-01T21:12:47.984Z,99.90
2018-07-01T21:15:16.934Z,99.90
2018-07-01T21:17:45.927Z,99.90
2018-07-01T21:22:43.570Z,99.90
2018-07-01T21:25:12.454Z,99.90
2018-07-01T21:27:41.225Z,99.90
2018-07-01T21:30:09.958Z,99.90
2018-07-01T21:32:38.746Z,99.90
2018-07-01T21:35:07.533Z,99.90
2018-07-01T21:37:36.350Z,99.90
2018-07-01T21:42:33.539Z,99.90
2018-07-01T21:45:02.331Z,99.90
2018-07-01T21:49:59.454Z,99.90
2018-07-01T21:54:56.705Z,99.90
2018-07-01T21:57:25.447Z,99.90
2018-07-01T21:59:54.427Z,99.90
2018-07-01T22:02:23.221Z,99.90
2018-07-01T22:04:52.082Z,99.90
2018-07-01T22:07:20.922Z,99.90
2018-07-01T22:09:49.722Z,99.90
2018-07-01T22:12:29.485Z,99.90
2018-07-01T22:15:16.739Z,99.90
2018-07-01T22:17:45.650Z,99.90
2018-07-01T22:20:14.521Z,99.90
2018-07-01T22:22:43.394Z,99.90
2018-07-01T22:28:11.234Z,99.90
2018-07-01T22:30:40.006Z,99.90
2018-07-01T22:33:08.781Z,99.90
2018-07-01T22:35:37.534Z,99.90
2018-07-01T22:38:06.423Z,99.90
2018-07-01T22:40:35.162Z,99.90
2018-07-01T22:43:03.894Z,99.90
2018-07-01T22:48:00.978Z,99.90
2018-07-01T22:50:29.745Z,99.90
2018-07-01T22:52:58.539Z,99.90
2018-07-01T22:55:28.193Z,99.90
2018-07-01T22:57:56.893Z,99.90
2018-07-01T23:00:25.670Z,99.90
2018-07-01T23:03:07.864Z,99.90
2018-07-01T23:05:36.641Z,99.90
2018-07-01T23:08:05.503Z,99.90
2018-07-01T23:10:34.313Z,99.90
2018-07-01T23:13:03.153Z,99.90
2018-07-01T23:15:32.042Z,99.90
2018-07-01T23:18:00.792Z,99.90
2018-07-01T23:22:57.953Z,99.90
2018-07-01T23:25:26.759Z,99.90
2018-07-01T23:27:55.546Z,99.90
2018-07-01T23:30:24.309Z,99.90
2018-07-01T23:32:53.053Z,99.90
2018-07-01T23:35:21.821Z,99.90
2018-07-01T23:37:50.627Z,99.90
2018-07-01T23:40:19.384Z,99.90
2018-07-01T23:42:48.222Z,99.90
2018-07-01T23:45:17.125Z,99.90
2018-07-01T23:47:45.986Z,99.90
2018-07-01T23:52:43.225Z,99.90
2018-07-01T23:55:12.100Z,99.90
2018-07-01T23:57:40.951Z,99.90
